Tiempo atmosférico en la estación meteorológica de Alpandeire, Málaga (680 m.)



Fecha
DESCASC
Temp. máxima en grados centígrados (hora)
DESCASC
Temp. mínima en grados centígrados (hora)
DESCASC
Temp. media en grados centígrados
DESCASC
Racha de viento máxima en m/sg (hora)
DESCASC
Velocidad máxima media en intervalos de 10 minutos(hora)
DESCASC
Precipitaciones diarias en mm
DESCASC
Precipitaciones de 00:00 a 06:00 en mm
DESCASC
Precipitaciones de 06:00 a 12:00 en mm
DESCASC
Precipitaciones de 12:00 a 18:00 en mm
DESCASC
Precipitaciones de 18:00 a 24:00 en mm
DESCASC
22-01-2020 8.5 (15:30) 5.5 (04:50) 7 5.83 (19:40) 2.78 (12:40) 26.2 10.6 6.6 1.8 7.2
21-01-2020 10.5 (14:30) 2.8 (06:10) 6.6 5.56 (08:20) 2.5 (08:20) 0.8 0 0 0 0.8
20-01-2020 6.1 (13:30) 1.3 (09:10) 3.7 13.89 (00:10) 7.22 (01:40) 4.6 0 0 4.6 0
19-01-2020 12.7 (00:00) 4.8 (00:00) 8.8 15.56 (23:50) 8.89 (23:50) 5.2 2.2 0.2 2.2 0.6
18-01-2020 14.5 (13:30) 7.6 (00:00) 11 11.39 (22:30) 6.39 (22:30) 7.6 0 0 2.4 5.2
17-01-2020 16.2 (13:20) 6.9 (00:00) 11.6 7.78 (15:20) 3.89 (14:20) 0 0 0 0 0
16-01-2020 16.4 (14:10) 5.9 (00:00) 11.1 6.39 (15:00) 3.89 (14:50) 0 0 0 0 0
15-01-2020 16.5 (15:10) 5 (00:00) 10.8 6.67 (15:50) 3.89 (16:10) 0 0 0 0 0
14-01-2020 13 (15:00) 3.4 (00:00) 8.2 6.94 (16:50) 3.33 (12:30) 0 0 0 0 0
13-01-2020 15.2 (15:30) 4.9 (00:00) 10 6.39 (05:50) 4.17 (05:50) 0 0 0 0 0
12-01-2020 15.6 (15:10) 4.5 (00:00) 10.1 4.17 (15:10) 2.78 (04:50) 0 0 0 0 0
11-01-2020 14.1 (16:40) 6.4 (00:00) 10.3 5 (03:30) 3.06 (03:30) 0 0 0 0 0
10-01-2020 13.4 (13:50) 6.5 (00:00) 9.9 9.72 (22:40) 6.11 (22:40) 0 0 0 0 0
09-01-2020 15.1 (15:20) 6.5 (00:00) 10.8 7.22 (02:30) 3.61 (07:40) 0 0 0 0 0
08-01-2020 18.6 (15:00) 6.1 (00:00) 12.4 3.33 (15:20) 2.22 (09:00) 0 0 0 0 0
07-01-2020 18 (15:40) 4.4 (00:00) 11.2 4.17 (09:30) 2.22 (09:40) 0 0 0 0 0
06-01-2020 16.1 (15:40) 4.9 (00:00) 10.5 5.83 (07:10) 3.61 (07:10) 0 0 0 0 0
05-01-2020 12.7 (13:50) 5.1 (00:00) 8.9 9.44 (02:40) 3.89 (02:40) 0 0 0 0 0
04-01-2020 14.1 (14:40) 5.1 (00:00) 9.6 7.5 (16:10) 4.44 (21:40) 0 0 0 0 0
03-01-2020 15.8 (16:10) 4 (00:00) 9.9 3.89 (14:50) 1.67 (15:00) 0 0 0 0 0
02-01-2020 15.9 (15:10) 3.5 (00:00) 9.7 3.89 (13:50) 1.67 (16:10) 0 0 0 0 0
01-01-2020 16.7 (15:30) 5.4 (00:00) 11.1 7.78 (01:00) 4.44 (01:00) 0 0 0 0 0
31-12-2019 13.4 (14:10) 7.8 (00:00) 10.6 8.61 (13:00) 5.28 (08:50) 0 0 0 0 0
30-12-2019 -- (--) -- (--) -- -- (--) -- (--) -- 0 0 -- 0
29-12-2019 13.2 (14:00) 7.8 (00:00) 10.5 8.33 (15:10) 5.28 (20:10) 0 0 0 0 0
28-12-2019 16.2 (14:30) 8.7 (00:00) 12.5 7.78 (13:00) 4.44 (13:30) 0 0 0 0 0
27-12-2019 17.6 (15:40) 10.2 (00:00) 13.9 9.72 (06:00) 3.89 (18:50) 0 0 0 0 0
26-12-2019 24.7 (15:40) 13.2 (00:00) 19 6.11 (23:30) 3.06 (23:30) 0 0 0 0 0
25-12-2019 22.5 (15:00) 11.8 (00:00) 17.2 6.67 (03:10) 4.72 (03:30) 0 0 0 0 0

Gráficas

Temp. máximas Temp. mínimas Temp. medias Precipitaciones Rachas de viento máximas Velocidades máximas media en intervalos de 10 minutos

Datos horarios

Fecha y hora oficial Temperatura (ºC) Velocidad del viento (km/h) Dirección del viento Racha (km/h) Dirección de racha Precipitación (mm) Presión (hPa) Tendencia (hPa) Humedad (%)
2020-01-23 23:00:00 7.1 0 Calma 11 Sudoeste 1.8 -- -- 95
2020-01-23 22:00:00 7.1 4 Oeste 13 Sudoeste 3.2 -- -- 94
2020-01-23 21:00:00 7 2 Sudoeste 11 Este 0.8 -- -- 92
2020-01-23 20:00:00 6.8 6 Este 24 Oeste 10 -- -- 91
2020-01-23 19:00:00 7.6 5 Este 12 Nordeste 11 -- -- 92
2020-01-23 18:00:00 8.6 3 Noroeste 9 Oeste 4.4 -- -- 90
2020-01-23 17:00:00 9.3 2 Norte 7 Oeste 4 -- -- 86
2020-01-23 16:00:00 11.1 4 Sur 20 Sur 0.2 -- -- 79
2020-01-23 15:00:00 10.6 9 Sur 24 Sur 0 -- -- 75
2020-01-23 14:00:00 10.5 9 Sur 25 Sudoeste 0 -- -- 75
2020-01-23 13:00:00 9.6 8 Sudeste 24 Sudeste 0 -- -- 80
2020-01-23 12:00:00 9.3 9 Este 19 Sudeste 0.2 -- -- 86
2020-01-23 11:00:00 8.1 2 Este 9 Sudoeste 0.2 -- -- 89
2020-01-23 10:00:00 8 2 Sudoeste 18 Este 0.2 -- -- 88
2020-01-23 09:00:00 7.8 8 Este 16 Nordeste 0.6 -- -- 87
2020-01-23 08:00:00 7.8 3 Este 11 Este 0 -- -- 88
2020-01-23 07:00:00 7.8 6 Sudeste 14 Sudeste 0 -- -- 86
2020-01-23 06:00:00 7.5 3 Sur 12 Sudeste 0 -- -- 88
2020-01-23 05:00:00 7.2 4 Este 16 Este 0.4 -- -- 90
2020-01-23 04:00:00 7.2 5 Este 12 Este 0.8 -- -- 91
2020-01-23 03:00:00 7.1 6 Este 17 Este 1.6 -- -- 91
2020-01-23 02:00:00 7 8 Este 20 Sudeste 0.2 -- -- 91
2020-01-23 01:00:00 6.9 5 Este 22 Este 0.4 -- -- 91
2020-01-23 00:00:00 6.8 4 Sudeste 15 Sudeste 1.4 -- -- 92
2020-01-22 23:00:00 6.5 4 Nordeste 10 Nordeste 1 -- -- 92
2020-01-22 22:00:00 6.5 3 Sudoeste 6 Oeste 4.2 -- -- 92
2020-01-22 21:00:00 7.1 2 Sur 15 Este 0.6 -- -- 87
2020-01-22 20:00:00 7.3 6 Este 21 Este 0 -- -- 82
2020-01-22 19:00:00 7.5 3 Sur 13 Este 0 -- -- 81
2020-01-22 18:00:00 7.8 6 Este 15 Este 0 -- -- 80
2020-01-22 17:00:00 8.1 6 Este 15 Este 0 -- -- 79
2020-01-22 16:00:00 8.4 5 Este 12 Sudeste 0 -- -- 81
2020-01-22 15:00:00 7.2 3 Nordeste 14 Este 0.2 -- -- 84
2020-01-22 14:00:00 7.5 8 Sur 15 Sur 0 -- -- 84
2020-01-22 13:00:00 7.1 6 Este 20 Este 1.6 -- -- 85
2020-01-22 12:00:00 5.9 3 Este 8 Oeste 1.4 -- -- 93
2020-01-22 11:00:00 6.3 2 Sur 9 Este 0 -- -- 92
2020-01-22 10:00:00 5.8 5 Nordeste 10 Este 1.4 -- -- 92
2020-01-22 09:00:00 5.7 3 Norte 9 Nordeste 1.2 -- -- 89
2020-01-22 08:00:00 5.7 0 Calma 12 Este 2 -- -- 90
2020-01-22 07:00:00 5.7 5 Este 14 Este 0.6 -- -- 90
2020-01-22 06:00:00 6 2 Sudeste 21 Este 0.8 -- -- 88
2020-01-22 05:00:00 5.6 5 Este 13 Nordeste 3.6 -- -- 88
2020-01-22 04:00:00 5.9 6 Nordeste 15 Este 4.6 -- -- 87
2020-01-22 03:00:00 6.3 4 Este 17 Nordeste 0.8 -- -- 86
2020-01-22 02:00:00 6.6 6 Nordeste 16 Nordeste 0.2 -- -- 85
2020-01-22 01:00:00 6.6 4 Este 10 Sudeste 0.6 -- -- 87
2020-01-22 00:00:00 6.8 4 Este 11 Este 0.2 -- -- 87
2020-01-21 23:00:00 6.8 3 Este 9 Nordeste 0.2 -- -- 85
2020-01-21 22:00:00 6.8 2 Este 8 Sudeste 0.2 -- -- 85
2020-01-21 21:00:00 7.1 0 Calma 5 Oeste 0.2 -- -- 85
2020-01-21 20:00:00 7.4 0 Calma 5 Oeste 0 -- -- 81
2020-01-21 19:00:00 7.6 0 Calma 12 Sudoeste 0 -- -- 78
2020-01-21 18:00:00 8 3 Sudoeste 13 Sur 0 -- -- 76
2020-01-21 17:00:00 8.2 2 Oeste 11 Sudoeste 0 -- -- 73
2020-01-21 16:00:00 9.1 0 Calma 12 Sudoeste 0 -- -- 72
2020-01-21 15:00:00 10.3 6 Sur 13 Sudoeste 0 -- -- 70
2020-01-21 14:00:00 10.1 6 Sudoeste 14 Sur 0 -- -- 69
2020-01-21 13:00:00 9.5 5 Sudoeste 12 Oeste 0 -- -- 70
2020-01-21 12:00:00 9.3 4 Sudoeste 9 Sudoeste 0 -- -- 74
2020-01-21 11:00:00 7.4 0 Calma 8 Sur 0 -- -- 78
2020-01-21 10:00:00 5 2 Este 12 Sur 0 -- -- 85
2020-01-21 09:00:00 4.6 6 Sur 20 Sudeste 0 -- -- 81
2020-01-21 08:00:00 3.1 0 Calma 8 Este 0 -- -- 88
2020-01-21 07:00:00 3.1 0 Calma 6 Este 0 -- -- 89
2020-01-21 06:00:00 2.9 0 Calma 7 Este 0 -- -- 89
2020-01-21 05:00:00 3.3 2 Nordeste 8 Nordeste 0 -- -- 88
2020-01-21 04:00:00 3.2 3 Nordeste 10 Nordeste 0 -- -- 88
2020-01-21 03:00:00 3.4 4 Noroeste 9 Nordeste 0 -- -- 88
2020-01-21 02:00:00 3.8 0 Calma 6 Nordeste 0 -- -- 88
2020-01-21 01:00:00 3.9 3 Este 6 Este 0 -- -- 87
2020-01-21 00:00:00 4.9 3 Este 6 Este 0 -- -- 86
2020-01-20 23:00:00 5.2 2 Sur 23 Norte 0 -- -- 83
2020-01-20 22:00:00 4.9 3 Oeste 10 Sur 0 -- -- 85
2020-01-20 21:00:00 5.5 8 Este 20 Este 0 -- -- 80
2020-01-20 20:00:00 4 4 Sudeste 19 Sudeste 0 -- -- 88
2020-01-20 19:00:00 3.4 3 Sur 12 Este 0 -- -- 89
2020-01-20 18:00:00 4 3 Sur 12 Sudoeste 0 -- -- 91
2020-01-20 17:00:00 3.9 3 Sudoeste 9 Sur 1.2 -- -- 92
2020-01-20 16:00:00 4.3 2 Oeste 8 Noroeste 2.4 -- -- 88
2020-01-20 15:00:00 5.4 0 Calma 9 Noroeste 1 -- -- 84
2020-01-20 14:00:00 6 3 Sudoeste 10 Oeste 0 -- -- 77
2020-01-20 13:00:00 5.8 3 Sur 7 Sur 0 -- -- 76
2020-01-20 12:00:00 4.3 0 Calma 5 Sudeste 0 -- -- 77
2020-01-20 11:00:00 3.3 0 Calma 5 Sudeste 0 -- -- 82
2020-01-20 10:00:00 1.8 3 Sudeste 8 Este 0 -- -- 88
2020-01-20 09:00:00 1.4 2 Sudeste 18 Sur 0 -- -- 86
2020-01-20 08:00:00 2.2 0 Calma 18 Oeste 0 -- -- 83
2020-01-20 07:00:00 2.9 9 Sur 30 Este 0 -- -- 82
2020-01-20 06:00:00 2.6 4 Este 9 Nordeste 0 -- -- 85
2020-01-20 05:00:00 3.1 4 Sudeste 39 Nordeste 0 -- -- 83
2020-01-20 04:00:00 3.7 11 Este 36 Nordeste 0 -- -- 81
2020-01-20 03:00:00 3.9 2 Oeste 44 Nordeste 0 -- -- 80
2020-01-20 02:00:00 4.6 17 Este 48 Nordeste 0 -- -- 78
2020-01-20 01:00:00 5.2 17 Nordeste 50 Nordeste 0 -- -- 76
2020-01-20 00:00:00 4.8 21 Nordeste 56 Nordeste 0 -- -- 79
2020-01-19 23:00:00 5 20 Nordeste 46 Este 0 -- -- 80
2020-01-19 22:00:00 5.3 15 Este 44 Norte 0.2 -- -- 81
2020-01-19 21:00:00 6 22 Nordeste 47 Norte 0 -- -- 78
2020-01-19 20:00:00 6.2 6 Nordeste 37 Norte 0 -- -- 80
2020-01-19 19:00:00 6.4 14 Nordeste 35 Nordeste 0.4 -- -- 82
2020-01-19 18:00:00 6.7 10 Nordeste 37 Nordeste 1.2 -- -- 81
2020-01-19 17:00:00 7.9 9 Nordeste 37 Nordeste 0 -- -- 73
2020-01-19 16:00:00 7.6 20 Nordeste 44 Norte 0.6 -- -- 79
2020-01-19 15:00:00 8.6 15 Nordeste 35 Nordeste 0.4 -- -- 76
2020-01-19 14:00:00 9.9 12 Norte 28 Este 0 -- -- 69
2020-01-19 13:00:00 8.8 11 Norte 30 Nordeste 0 -- -- 75
2020-01-19 12:00:00 8.2 9 Norte 47 Nordeste 0 -- -- 78
2020-01-19 11:00:00 7.8 24 Nordeste 48 Nordeste 0 -- -- 80
2020-01-19 10:00:00 7.2 15 Nordeste 37 Nordeste 0 -- -- 85
2020-01-19 09:00:00 6.9 13 Nordeste 36 Nordeste 0 -- -- 84
2020-01-19 08:00:00 7.2 12 Nordeste 28 Nordeste 0 -- -- 80
2020-01-19 07:00:00 7.6 8 Norte 31 Noroeste 0.2 -- -- 80
2020-01-19 06:00:00 8.4 8 Noroeste 32 Noroeste 0 -- -- 76
2020-01-19 05:00:00 8.8 10 Noroeste 34 Nordeste 0 -- -- 74
2020-01-19 04:00:00 9 8 Este 37 Norte 0 -- -- 70
2020-01-19 03:00:00 9.9 9 Sudeste 26 Sudeste 0 -- -- 81
2020-01-19 02:00:00 12 8 Norte 22 Noroeste 0.4 -- -- 86
2020-01-19 01:00:00 12.4 6 Oeste 28 Oeste 1.8 -- -- 92
2020-01-19 00:00:00 12.7 16 Oeste 41 Sudoeste 1 -- -- 94
2020-01-18 23:00:00 12.8 19 Oeste 41 Oeste 0.4 -- -- 93
2020-01-18 22:00:00 12.9 17 Oeste 31 Oeste 0.2 -- -- 92
2020-01-18 21:00:00 12.1 2 Sur 5 Sudeste 0.4 -- -- 94
2020-01-18 20:00:00 11.9 0 Calma 8 Noroeste 1.2 -- -- 94
2020-01-18 19:00:00 11.9 5 Oeste 8 Oeste 2 -- -- 94
2020-01-18 18:00:00 12.1 4 Oeste 10 Oeste 1.8 -- -- 93
2020-01-18 17:00:00 12.5 4 Oeste 21 Noroeste 0.6 -- -- 90
2020-01-18 16:00:00 13.3 8 Oeste 24 Oeste 0 -- -- 84
2020-01-18 15:00:00 14 15 Noroeste 30 Oeste 0 -- -- 72
2020-01-18 14:00:00 14.2 12 Noroeste 28 Noroeste 0 -- -- 66
2020-01-18 13:00:00 13.8 6 Sudoeste 15 Sudoeste 0 -- -- 57
2020-01-18 12:00:00 13.1 2 Oeste 7 Noroeste 0 -- -- 54
2020-01-18 11:00:00 11.9 0 Calma 5 Nordeste 0 -- -- 62
2020-01-18 10:00:00 10.6 0 Calma 5 Noroeste 0 -- -- 67
2020-01-18 09:00:00 10.1 4 Este 8 Nordeste 0 -- -- 58
2020-01-18 08:00:00 9.5 4 Nordeste 8 Nordeste 0 -- -- 56
2020-01-18 07:00:00 9.1 4 Nordeste 6 Nordeste 0 -- -- 57
2020-01-18 06:00:00 8.9 0 Calma 5 Nordeste 0 -- -- 57
2020-01-18 05:00:00 8.2 2 Este 8 Noroeste 0 -- -- 60
2020-01-18 04:00:00 8.6 3 Norte 8 Noroeste 0 -- -- 56
2020-01-18 03:00:00 7.6 3 Este 9 Nordeste 0 -- -- 61
2020-01-18 02:00:00 8 3 Nordeste 13 Este 0 -- -- 71
2020-01-18 01:00:00 8 4 Este 6 Nordeste 0 -- -- 77
2020-01-18 00:00:00 8.6 2 Nordeste 9 Este 0 -- -- 77
2020-01-17 23:00:00 9.2 4 Nordeste 9 Nordeste 0 -- -- 74
2020-01-17 22:00:00 9.3 4 Este 9 Nordeste 0 -- -- 81
2020-01-17 21:00:00 9.9 2 Norte 6 Este 0 -- -- 79
2020-01-17 20:00:00 11.3 0 Calma 24 Sudeste 0 -- -- 72
2020-01-17 19:00:00 12.4 9 Este 20 Oeste 0 -- -- 68
2020-01-17 18:00:00 14.4 4 Noroeste 26 Norte 0 -- -- 60
2020-01-17 17:00:00 15 8 Nordeste 24 Norte 0 -- -- 61
2020-01-17 16:00:00 15.8 7 Nordeste 28 Norte 0 -- -- 61
2020-01-17 15:00:00 16.2 9 Nordeste 26 Nordeste 0 -- -- 61
2020-01-17 14:00:00 16.2 12 Nordeste 27 Nordeste 0 -- -- 62
2020-01-17 13:00:00 16.1 6 Nordeste 27 Norte 0 -- -- 60
2020-01-17 12:00:00 15.1 8 Oeste 15 Oeste 0 -- -- 62
2020-01-17 11:00:00 11.8 2 Sudeste 6 Norte 0 -- -- 55
2020-01-17 10:00:00 9.8 2 Nordeste 8 Sudeste 0 -- -- 50
2020-01-17 09:00:00 8.6 2 Sudeste 9 Noroeste 0 -- -- 52
2020-01-17 08:00:00 7.8 2 Este 6 Norte 0 -- -- 50
2020-01-17 07:00:00 8.8 3 Norte 12 Norte 0 -- -- 47
2020-01-17 06:00:00 8.5 3 Norte 9 Noroeste 0 -- -- 51
2020-01-17 05:00:00 8.7 4 Norte 10 Norte 0 -- -- 51
2020-01-17 04:00:00 8.3 2 Norte 6 Norte 0 -- -- 53
2020-01-17 03:00:00 7 2 Nordeste 6 Nordeste 0 -- -- 64
2020-01-17 02:00:00 7.6 0 Calma 14 Norte 0 -- -- 65
2020-01-17 01:00:00 7 2 Nordeste 5 Este 0 -- -- 74
2020-01-17 00:00:00 7.2 2 Este 4 Nordeste 0 -- -- 76
2020-01-16 23:00:00 7.8 2 Nordeste 4 Este 0 -- -- 74
2020-01-16 22:00:00 7.4 0 Calma 5 Nordeste 0 -- -- 73
2020-01-16 21:00:00 8.8 3 Nordeste 5 Nordeste 0 -- -- 65
2020-01-16 20:00:00 9.6 3 Nordeste 5 Nordeste 0 -- -- 65
2020-01-16 19:00:00 11.3 0 Calma 9 Sudoeste 0 -- -- 54
2020-01-16 18:00:00 14.2 4 Sudoeste 17 Sudoeste 0 -- -- 44
2020-01-16 17:00:00 15.2 10 Sudoeste 19 Sudoeste 0 -- -- 46
2020-01-16 16:00:00 15.9 9 Sudoeste 19 Sudoeste 0 -- -- 43
2020-01-16 15:00:00 15.9 11 Sudoeste 23 Sudoeste 0 -- -- 46
2020-01-16 14:00:00 16.2 8 Oeste 19 Oeste 0 -- -- 43
2020-01-16 13:00:00 15.6 7 Sudoeste 15 Oeste 0 -- -- 44
2020-01-16 12:00:00 14.4 3 Sudoeste 12 Sudoeste 0 -- -- 46
2020-01-16 11:00:00 12.4 3 Sudoeste 10 Sudeste 0 -- -- 53
2020-01-16 10:00:00 8.4 3 Este 5 Este 0 -- -- 67
2020-01-16 09:00:00 6.5 2 Norte 6 Nordeste 0 -- -- 57
2020-01-16 08:00:00 6.6 2 Este 12 Nordeste 0 -- -- 57
2020-01-16 07:00:00 6.6 3 Nordeste 6 Nordeste 0 -- -- 56
2020-01-16 06:00:00 6.2 0 Calma 7 Nordeste 0 -- -- 54
2020-01-16 05:00:00 6 0 Calma 8 Nordeste 0 -- -- 60
2020-01-16 04:00:00 6.3 0 Calma 5 Este 0 -- -- 59
2020-01-16 03:00:00 6.5 5 Nordeste 9 Nordeste 0 -- -- 61
2020-01-16 02:00:00 6.6 5 Nordeste 9 Nordeste 0 -- -- 64
2020-01-16 01:00:00 6.8 0 Calma 7 Nordeste 0 -- -- 63
2020-01-16 00:00:00 7.1 0 Calma 5 Este 0 -- -- 59
2020-01-15 23:00:00 6.7 3 Este 5 Este 0 -- -- 62
2020-01-15 22:00:00 7.9 0 Calma 8 Nordeste 0 -- -- 60
2020-01-15 21:00:00 9.5 6 Nordeste 9 Nordeste 0 -- -- 56
2020-01-15 20:00:00 9.2 4 Nordeste 7 Este 0 -- -- 58
2020-01-15 19:00:00 11.2 4 Nordeste 12 Oeste 0 -- -- 51
2020-01-15 18:00:00 14.3 6 Oeste 17 Sudoeste 0 -- -- 43
2020-01-15 17:00:00 15.8 11 Sudoeste 22 Oeste 0 -- -- 39
2020-01-15 16:00:00 16.1 13 Sudoeste 24 Sudoeste 0 -- -- 40
2020-01-15 15:00:00 16.3 10 Sudoeste 22 Sur 0 -- -- 43
2020-01-15 14:00:00 16.2 9 Sudoeste 20 Oeste 0 -- -- 45
2020-01-15 13:00:00 14.7 6 Oeste 14 Oeste 0 -- -- 47
2020-01-15 12:00:00 14 5 Oeste 10 Sudoeste 0 -- -- 48
2020-01-15 11:00:00 11.8 0 Calma 4 Sur 0 -- -- 59
2020-01-15 10:00:00 7.9 0 Calma 8 Este 0 -- -- 76
2020-01-15 09:00:00 5.6 0 Calma 4 Este 0 -- -- 74
2020-01-15 08:00:00 5.2 0 Calma 4 Nordeste 0 -- -- 74
2020-01-15 07:00:00 5.2 0 Calma 5 Nordeste 0 -- -- 73
2020-01-15 06:00:00 5.8 4 Nordeste 6 Nordeste 0 -- -- 76
2020-01-15 05:00:00 5 0 Calma 5 Nordeste 0 -- -- 80
2020-01-15 04:00:00 5.5 0 Calma 4 Este 0 -- -- 80
2020-01-15 03:00:00 5.8 2 Este 4 Este 0 -- -- 79
2020-01-15 02:00:00 6.2 0 Calma 4 Nordeste 0 -- -- 78
2020-01-15 01:00:00 6.3 0 Calma 6 Nordeste 0 -- -- 77
2020-01-15 00:00:00 6.6 0 Calma 4 Este 0 -- -- 78
2020-01-14 23:00:00 6.7 0 Calma 7 Nordeste 0 -- -- 75
2020-01-14 22:00:00 6.7 2 Este 6 Nordeste 0 -- -- 75
2020-01-14 21:00:00 7.7 0 Calma 9 Sudeste 0 -- -- 71
2020-01-14 20:00:00 9 6 Norte 13 Nordeste 0 -- -- 68
2020-01-14 19:00:00 9.8 4 Nordeste 16 Este 0 -- -- 62
2020-01-14 18:00:00 11.3 6 Nordeste 19 Nordeste 0 -- -- 58
2020-01-14 17:00:00 12.3 6 Nordeste 25 Nordeste 0 -- -- 54
2020-01-14 16:00:00 12.4 10 Nordeste 24 Nordeste 0 -- -- 50
2020-01-14 15:00:00 13 8 Oeste 14 Oeste 0 -- -- 57
2020-01-14 14:00:00 11.9 7 Oeste 14 Oeste 0 -- -- 60
2020-01-14 13:00:00 10.8 7 Noroeste 22 Oeste 0 -- -- 66
2020-01-14 12:00:00 9.8 7 Oeste 13 Oeste 0 -- -- 71
2020-01-14 11:00:00 8 0 Calma 3 Sudoeste 0 -- -- 81
2020-01-14 10:00:00 5.5 0 Calma 4 Sur 0 -- -- 88
2020-01-14 09:00:00 3.9 2 Este 6 Nordeste 0 -- -- 86
2020-01-14 08:00:00 3.6 4 Este 6 Este 0 -- -- 84
2020-01-14 07:00:00 4.3 3 Nordeste 6 Este 0 -- -- 83
2020-01-14 06:00:00 4.6 2 Nordeste 5 Este 0 -- -- 83
2020-01-14 05:00:00 4.8 0 Calma 8 Norte 0 -- -- 82
2020-01-14 04:00:00 5 0 Calma 5 Nordeste 0 -- -- 82
2020-01-14 03:00:00 5 0 Calma 5 Nordeste 0 -- -- 82
2020-01-14 02:00:00 5.1 0 Calma 5 Nordeste 0 -- -- 85
2020-01-14 01:00:00 5 0 Calma 8 Nordeste 0 -- -- 85
2020-01-14 00:00:00 5.5 0 Calma 6 Este 0 -- -- 88
2020-01-13 23:00:00 6.1 2 Este 5 Nordeste 0 -- -- 89
2020-01-13 22:00:00 6.7 0 Calma 4 Este 0 -- -- 86
2020-01-13 21:00:00 7.4 0 Calma 4 Nordeste 0 -- -- 85
2020-01-13 20:00:00 8.2 0 Calma 2 Noroeste 0 -- -- 83
2020-01-13 19:00:00 9.7 0 Calma 9 Noroeste 0 -- -- 78
2020-01-13 18:00:00 12 6 Oeste 13 Sudoeste 0 -- -- 70
2020-01-13 17:00:00 14.2 8 Oeste 15 Oeste 0 -- -- 62
2020-01-13 16:00:00 14.3 10 Sudoeste 15 Sudoeste 0 -- -- 57
2020-01-13 15:00:00 14.4 5 Sudoeste 13 Sudoeste 0 -- -- 54
2020-01-13 14:00:00 13 7 Oeste 12 Oeste 0 -- -- 52
2020-01-13 13:00:00 12.6 5 Oeste 15 Sudoeste 0 -- -- 57
2020-01-13 12:00:00 11.9 5 Sudeste 13 Sudoeste 0 -- -- 59
2020-01-13 11:00:00 8.8 3 Oeste 11 Sudoeste 0 -- -- 73
2020-01-13 10:00:00 6 0 Calma 5 Noroeste 0 -- -- 84
2020-01-13 09:00:00 5.4 0 Calma 17 Este 0 -- -- 77
2020-01-13 08:00:00 6.2 3 Este 15 Nordeste 0 -- -- 72
2020-01-13 07:00:00 6.5 7 Nordeste 15 Nordeste 0 -- -- 72
2020-01-13 06:00:00 7.1 12 Nordeste 23 Este 0 -- -- 70
2020-01-13 05:00:00 7.3 11 Nordeste 18 Nordeste 0 -- -- 66
2020-01-13 04:00:00 7.2 6 Nordeste 17 Este 0 -- -- 71
2020-01-13 03:00:00 6.8 7 Nordeste 18 Este 0 -- -- 80
2020-01-13 02:00:00 5.1 0 Calma 4 Este 0 -- -- 85
2020-01-13 01:00:00 5.2 3 Este 5 Nordeste 0 -- -- 85
2020-01-13 00:00:00 5.2 0 Calma 5 Este 0 -- -- 83
2020-01-12 23:00:00 6.4 3 Nordeste 5 Nordeste 0 -- -- 89
2020-01-12 22:00:00 6.6 0 Calma 4 Nordeste 0 -- -- 85
2020-01-12 21:00:00 7.3 0 Calma 3 Este 0 -- -- 83
2020-01-12 20:00:00 8.7 3 Nordeste 6 Noroeste 0 -- -- 81
2020-01-12 19:00:00 9.9 3 Oeste 9 Oeste 0 -- -- 77
2020-01-12 18:00:00 13 5 Oeste 13 Sudoeste 0 -- -- 66
2020-01-12 17:00:00 14.7 8 Sudoeste 13 Sudoeste 0 -- -- 61
2020-01-12 16:00:00 15.2 6 Oeste 15 Sudoeste 0 -- -- 57
2020-01-12 15:00:00 15.2 7 Sudoeste 15 Sudoeste 0 -- -- 57
2020-01-12 14:00:00 13.8 6 Oeste 15 Sudoeste 0 -- -- 61
2020-01-12 13:00:00 12.7 6 Oeste 13 Sudoeste 0 -- -- 64
2020-01-12 12:00:00 11.4 3 Oeste 9 Sudoeste 0 -- -- 66
2020-01-12 11:00:00 10 0 Calma 3 Sur 0 -- -- 75
2020-01-12 10:00:00 6.3 0 Calma 4 Norte 0 -- -- 89
2020-01-12 09:00:00 4.9 2 Norte 4 Nordeste 0 -- -- 86
2020-01-12 08:00:00 4.7 0 Calma 5 Nordeste 0 -- -- 84
2020-01-12 07:00:00 5.8 0 Calma 13 Este 0 -- -- 81
2020-01-12 06:00:00 7.2 10 Este 15 Este 0 -- -- 83
2020-01-12 05:00:00 7.2 6 Este 15 Este 0 -- -- 79
2020-01-12 04:00:00 6.8 3 Este 13 Este 0 -- -- 78
2020-01-12 03:00:00 7.1 8 Este 13 Nordeste 0 -- -- 78
2020-01-12 02:00:00 7.7 7 Este 15 Nordeste 0 -- -- 78
2020-01-12 01:00:00 8.1 8 Este 13 Este 0 -- -- 79
2020-01-12 00:00:00 7.8 8 Este 17 Nordeste 0 -- -- 82
2020-01-11 23:00:00 7.5 7 Nordeste 15 Este 0 -- -- 81
2020-01-11 22:00:00 7.6 6 Nordeste 12 Nordeste 0 -- -- 81
2020-01-11 21:00:00 7.5 4 Nordeste 10 Nordeste 0 -- -- 80
2020-01-11 20:00:00 8.2 4 Este 15 Este 0 -- -- 76
2020-01-11 19:00:00 9.6 8 Nordeste 14 Nordeste 0 -- -- 71
2020-01-11 18:00:00 12 0 Calma 13 Sudeste 0 -- -- 65
2020-01-11 17:00:00 13.1 8 Sudoeste 13 Oeste 0 -- -- 61
2020-01-11 16:00:00 12.7 4 Sudoeste 8 Sudoeste 0 -- -- 67
2020-01-11 15:00:00 12.7 4 Sudoeste 16 Sur 0 -- -- 64
2020-01-11 14:00:00 12.1 3 Oeste 12 Sudoeste 0 -- -- 66
2020-01-11 13:00:00 12 3 Sudeste 15 Sur 0 -- -- 69
2020-01-11 12:00:00 11.9 5 Sudeste 13 Sudeste 0 -- -- 70
2020-01-11 11:00:00 9.7 4 Nordeste 10 Este 0 -- -- 76
2020-01-11 10:00:00 8.2 4 Este 13 Nordeste 0 -- -- 80
2020-01-11 09:00:00 7.2 7 Nordeste 14 Este 0 -- -- 81
2020-01-11 08:00:00 7 8 Nordeste 11 Nordeste 0 -- -- 80
2020-01-11 07:00:00 6.7 5 Este 10 Este 0 -- -- 81
2020-01-11 06:00:00 7.1 4 Nordeste 9 Este 0 -- -- 77
2020-01-11 05:00:00 7.5 2 Este 15 Nordeste 0 -- -- 74
2020-01-11 04:00:00 8.2 7 Nordeste 18 Este 0 -- -- 69
2020-01-11 03:00:00 8.2 9 Nordeste 18 Nordeste 0 -- -- 67
2020-01-11 02:00:00 7.7 8 Este 14 Nordeste 0 -- -- 69
2020-01-11 01:00:00 7.4 2 Noroeste 14 Este 0 -- -- 63
2020-01-11 00:00:00 6.9 0 Calma 21 Nordeste 0 -- -- 64
2020-01-10 23:00:00 8.4 14 Nordeste 35 Este 0 -- -- 56
2020-01-10 22:00:00 8.4 18 Nordeste 30 Nordeste 0 -- -- 58
2020-01-10 21:00:00 8.5 4 Nordeste 27 Nordeste 0 -- -- 59
2020-01-10 20:00:00 8.6 4 Norte 23 Sudeste 0 -- -- 65
2020-01-10 19:00:00 8.9 5 Sudeste 18 Sudeste 0 -- -- 76
2020-01-10 18:00:00 10.1 4 Sur 22 Sudeste 0 -- -- 70
2020-01-10 17:00:00 10.6 10 Este 21 Este 0 -- -- 67
2020-01-10 16:00:00 11.9 4 Sur 17 Noroeste 0 -- -- 63
2020-01-10 15:00:00 12.2 5 Oeste 24 Noroeste 0 -- -- 62
2020-01-10 14:00:00 13.2 6 Norte 23 Sudeste 0 -- -- 59
2020-01-10 13:00:00 12.6 10 Nordeste 23 Este 0 -- -- 62
2020-01-10 12:00:00 10.8 4 Nordeste 15 Noroeste 0 -- -- 69
2020-01-10 11:00:00 9.8 9 Oeste 20 Oeste 0 -- -- 77
2020-01-10 10:00:00 8.3 4 Sur 9 Sudoeste 0 -- -- 86
2020-01-10 09:00:00 8.2 5 Nordeste 17 Este 0 -- -- 81
2020-01-10 08:00:00 8.4 3 Nordeste 20 Noroeste 0 -- -- 85
2020-01-10 07:00:00 8.8 6 Norte 27 Norte 0 -- -- 83
2020-01-10 06:00:00 8.3 4 Nordeste 23 Norte 0 -- -- 78
2020-01-10 05:00:00 6.8 0 Calma 7 Norte 0 -- -- 86
2020-01-10 04:00:00 6.6 3 Nordeste 6 Nordeste 0 -- -- 86
2020-01-10 03:00:00 6.8 2 Este 9 Sudoeste 0 -- -- 85
2020-01-10 02:00:00 6.8 0 Calma 10 Este 0 -- -- 86
2020-01-10 01:00:00 7 2 Nordeste 19 Este 0 -- -- 87
2020-01-10 00:00:00 7.2 3 Oeste 14 Sudoeste 0 -- -- 90
2020-01-09 23:00:00 6.7 2 Este 4 Nordeste 0 -- -- 88
2020-01-09 22:00:00 7.3 0 Calma 4 Este 0 -- -- 90
2020-01-09 21:00:00 8.1 0 Calma 12 Oeste 0 -- -- 87
2020-01-09 20:00:00 9.1 2 Noroeste 4 Noroeste 0 -- -- 86
2020-01-09 19:00:00 9.7 2 Oeste 9 Sudoeste 0 -- -- 84
2020-01-09 18:00:00 11.6 6 Oeste 13 Sudoeste 0 -- -- 77
2020-01-09 17:00:00 12.8 7 Sudoeste 21 Sudoeste 0 -- -- 74
2020-01-09 16:00:00 14.9 6 Sudoeste 16 Sudoeste 0 -- -- 64
2020-01-09 15:00:00 14.9 7 Sudoeste 16 Sudoeste 0 -- -- 63
2020-01-09 14:00:00 14.2 6 Sudoeste 14 Sudeste 0 -- -- 64
2020-01-09 13:00:00 13 4 Sur 12 Sudoeste 0 -- -- 68
2020-01-09 12:00:00 11.2 5 Sudeste 17 Sudeste 0 -- -- 73
2020-01-09 11:00:00 10.3 8 Este 17 Nordeste 0 -- -- 76
2020-01-09 10:00:00 8.5 10 Este 19 Este 0 -- -- 81
2020-01-09 09:00:00 7.4 13 Este 22 Nordeste 0 -- -- 84
2020-01-09 08:00:00 7.3 12 Este 22 Nordeste 0 -- -- 84
2020-01-09 07:00:00 7.1 9 Este 20 Este 0 -- -- 86
2020-01-09 06:00:00 6.8 6 Este 14 Este 0 -- -- 87
2020-01-09 05:00:00 7 5 Nordeste 18 Este 0 -- -- 86
2020-01-09 04:00:00 7 3 Sudeste 12 Sudeste 0 -- -- 86
2020-01-09 03:00:00 7.3 5 Este 26 Sudeste 0 -- -- 86
2020-01-09 02:00:00 6.8 3 Noroeste 15 Nordeste 0 -- -- 88
2020-01-09 01:00:00 6.5 0 Calma 6 Noroeste 0 -- -- 90
2020-01-09 00:00:00 7.4 2 Sudoeste 6 Este 0 -- -- 87
2020-01-08 23:00:00 7.7 0 Calma 4 Este 0 -- -- 85
2020-01-08 22:00:00 8.1 2 Este 4 Este 0 -- -- 81
2020-01-08 21:00:00 9.4 2 Este 3 Este 0 -- -- 80
2020-01-08 20:00:00 10.4 0 Calma 4 Sur 0 -- -- 78
2020-01-08 19:00:00 12 0 Calma 5 Oeste 0 -- -- 71
2020-01-08 18:00:00 15.5 2 Oeste 7 Sudoeste 0 -- -- 63
2020-01-08 17:00:00 17.1 6 Oeste 10 Sudoeste 0 -- -- 58
2020-01-08 16:00:00 18 7 Sudoeste 12 Sudoeste 0 -- -- 53
2020-01-08 15:00:00 18.6 6 Sudoeste 12 Sur 0 -- -- 44
2020-01-08 14:00:00 17.9 5 Sur 11 Sur 0 -- -- 42
2020-01-08 13:00:00 16.9 6 Sur 10 Sur 0 -- -- 38
2020-01-08 12:00:00 15.5 3 Oeste 6 Sudoeste 0 -- -- 46
2020-01-08 11:00:00 13.9 0 Calma 4 Oeste 0 -- -- 57
2020-01-08 10:00:00 10.1 2 Nordeste 8 Nordeste 0 -- -- 53
2020-01-08 09:00:00 9 8 Nordeste 10 Nordeste 0 -- -- 45
2020-01-08 08:00:00 8.3 3 Este 8 Este 0 -- -- 47
2020-01-08 07:00:00 7.6 3 Este 9 Nordeste 0 -- -- 54
2020-01-08 06:00:00 8.1 6 Nordeste 9 Nordeste 0 -- -- 52
2020-01-08 05:00:00 7.3 3 Este 11 Nordeste 0 -- -- 54
2020-01-08 04:00:00 7 0 Calma 8 Nordeste 0 -- -- 56
2020-01-08 03:00:00 6.8 5 Nordeste 9 Nordeste 0 -- -- 56
2020-01-08 02:00:00 6.3 0 Calma 5 Nordeste 0 -- -- 69
2020-01-08 01:00:00 6.9 2 Este 4 Este 0 -- -- 73
2020-01-08 00:00:00 7.3 0 Calma 4 Norte 0 -- -- 75
2020-01-07 23:00:00 7.5 0 Calma 5 Este 0 -- -- 76
2020-01-07 22:00:00 8.6 2 Nordeste 4 Nordeste 0 -- -- 79
2020-01-07 21:00:00 9 0 Calma 4 Nordeste 0 -- -- 85
2020-01-07 20:00:00 9.7 0 Calma 3 Oeste 0 -- -- 80
2020-01-07 19:00:00 11 2 Sudeste 3 Oeste 0 -- -- 74
2020-01-07 18:00:00 14.1 3 Oeste 10 Oeste 0 -- -- 68
2020-01-07 17:00:00 17.2 5 Sudoeste 10 Sur 0 -- -- 56
2020-01-07 16:00:00 17.4 7 Sudoeste 12 Sudoeste 0 -- -- 49
2020-01-07 15:00:00 17.2 5 Oeste 11 Oeste 0 -- -- 49
2020-01-07 14:00:00 16.5 7 Oeste 13 Sudoeste 0 -- -- 50
2020-01-07 13:00:00 14.5 4 Oeste 11 Sudoeste 0 -- -- 51
2020-01-07 12:00:00 13.4 4 Oeste 8 Sur 0 -- -- 48
2020-01-07 11:00:00 12.6 3 Sudoeste 6 Sudoeste 0 -- -- 49
2020-01-07 10:00:00 10.3 0 Calma 15 Este 0 -- -- 53
2020-01-07 09:00:00 7.5 3 Nordeste 11 Este 0 -- -- 45
2020-01-07 08:00:00 6.1 2 Sudeste 4 Este 0 -- -- 59
2020-01-07 07:00:00 5 0 Calma 7 Nordeste 0 -- -- 70
2020-01-07 06:00:00 4.5 3 Este 6 Nordeste 0 -- -- 77
2020-01-07 05:00:00 4.5 0 Calma 4 Nordeste 0 -- -- 86
2020-01-07 04:00:00 4.8 2 Nordeste 4 Este 0 -- -- 89
2020-01-07 03:00:00 4.9 0 Calma 4 Este 0 -- -- 87
2020-01-07 02:00:00 5.4 0 Calma 6 Nordeste 0 -- -- 90
2020-01-07 01:00:00 5.3 0 Calma 4 Este 0 -- -- 89
2020-01-07 00:00:00 5.6 0 Calma 4 Este 0 -- -- 87
2020-01-06 23:00:00 5.8 0 Calma 3 Sudeste 0 -- -- 88
2020-01-06 22:00:00 6.8 0 Calma 5 Este 0 -- -- 88
2020-01-06 21:00:00 7.3 0 Calma 5 Este 0 -- -- 86
2020-01-06 20:00:00 8.3 0 Calma 4 Norte 0 -- -- 82
2020-01-06 19:00:00 9.9 0 Calma 4 Sudoeste 0 -- -- 77
2020-01-06 18:00:00 12.1 3 Sudoeste 12 Oeste 0 -- -- 72
2020-01-06 17:00:00 14.6 6 Sudoeste 14 Sudoeste 0 -- -- 65
2020-01-06 16:00:00 15.7 5 Sudoeste 14 Sur 0 -- -- 57
2020-01-06 15:00:00 15.4 6 Sur 14 Oeste 0 -- -- 61
2020-01-06 14:00:00 14.4 4 Oeste 14 Sudoeste 0 -- -- 61
2020-01-06 13:00:00 13.1 7 Sudoeste 16 Oeste 0 -- -- 66
2020-01-06 12:00:00 11.7 7 Sudeste 20 Sudeste 0 -- -- 69
2020-01-06 11:00:00 10.3 7 Sudeste 19 Este 0 -- -- 72
2020-01-06 10:00:00 8.2 6 Este 14 Este 0 -- -- 81